createdAt,value
2019-05-12T00:01:19.888Z,86.80
2019-05-12T00:03:49.623Z,86.59
2019-05-12T00:06:19.313Z,86.81
2019-05-12T00:08:49.007Z,86.75
2019-05-12T00:11:18.777Z,87.31
2019-05-12T00:13:48.470Z,87.29
2019-05-12T00:16:18.135Z,87.31
2019-05-12T00:18:48.338Z,87.67
2019-05-12T00:21:18.112Z,87.82
2019-05-12T00:24:07.911Z,87.97
2019-05-12T00:26:38.280Z,88.01
2019-05-12T00:29:08.136Z,88.22
2019-05-12T00:31:38.248Z,87.90
2019-05-12T00:34:08.038Z,88.05
2019-05-12T00:36:38.049Z,88.00
2019-05-12T00:39:08.875Z,87.96
2019-05-12T00:41:39.056Z,88.20
2019-05-12T00:44:09.148Z,88.69
2019-05-12T00:46:41.133Z,89.01
2019-05-12T00:49:10.808Z,88.95
2019-05-12T00:51:40.478Z,88.96
2019-05-12T00:54:10.175Z,89.13
2019-05-12T00:56:39.912Z,89.37
2019-05-12T00:59:09.661Z,89.57
2019-05-12T01:01:39.364Z,89.47
2019-05-12T01:04:09.152Z,89.16
2019-05-12T01:06:38.977Z,89.05
2019-05-12T01:09:09.139Z,89.41
2019-05-12T01:11:39.008Z,89.31
2019-05-12T01:14:08.848Z,89.51
2019-05-12T01:16:38.828Z,89.37
2019-05-12T01:19:08.561Z,89.38
2019-05-12T01:21:38.345Z,89.38
2019-05-12T01:24:08.975Z,89.43
2019-05-12T01:26:39.052Z,89.57
2019-05-12T01:29:08.806Z,89.74
2019-05-12T01:31:42.623Z,89.32
2019-05-12T01:34:12.290Z,89.16
2019-05-12T01:36:42.050Z,89.19
2019-05-12T01:39:11.729Z,88.98
2019-05-12T01:41:41.576Z,88.94
2019-05-12T01:44:11.328Z,89.12
2019-05-12T01:46:41.080Z,88.78
2019-05-12T01:49:10.850Z,89.01
2019-05-12T01:51:40.514Z,89.01
2019-05-12T01:54:14.624Z,88.96
2019-05-12T01:56:41.704Z,88.94
2019-05-12T01:59:11.401Z,89.12
2019-05-12T02:01:41.067Z,88.90
2019-05-12T02:04:10.753Z,88.72
2019-05-12T02:06:40.460Z,88.78
2019-05-12T02:09:11.883Z,89.10
2019-05-12T02:11:41.555Z,89.31
2019-05-12T02:14:11.328Z,89.50
2019-05-12T02:16:41.234Z,89.24
2019-05-12T02:19:10.972Z,89.36
2019-05-12T02:21:40.672Z,89.58
2019-05-12T02:24:23.248Z,90.09
2019-05-12T02:26:41.992Z,90.32
2019-05-12T02:29:11.706Z,90.22
2019-05-12T02:31:41.446Z,90.12
2019-05-12T02:34:11.108Z,90.19
2019-05-12T02:36:40.868Z,89.83
2019-05-12T02:39:10.530Z,90.25
2019-05-12T02:41:40.227Z,90.54
2019-05-12T02:44:09.977Z,90.43
2019-05-12T02:46:39.791Z,90.75
2019-05-12T02:49:09.464Z,91.04
2019-05-12T02:51:39.532Z,91.10
2019-05-12T02:54:09.920Z,90.89
2019-05-12T02:56:40.751Z,90.88
2019-05-12T02:59:10.981Z,90.96
2019-05-12T03:01:45.275Z,91.21
2019-05-12T03:04:15.380Z,91.15
2019-05-12T03:06:45.536Z,90.93
2019-05-12T03:09:15.379Z,91.39
2019-05-12T03:11:46.143Z,91.27
2019-05-12T03:14:16.059Z,92.11
2019-05-12T03:16:45.775Z,91.81
2019-05-12T03:19:15.504Z,91.75
2019-05-12T03:21:45.278Z,91.23
2019-05-12T03:24:17.553Z,91.42
2019-05-12T03:26:46.300Z,91.83
2019-05-12T03:29:15.983Z,92.43
2019-05-12T03:31:48.841Z,92.73
2019-05-12T03:34:19.442Z,93.03
2019-05-12T03:36:51.261Z,93.16
2019-05-12T03:39:20.005Z,93.20
2019-05-12T03:41:49.760Z,93.19
2019-05-12T03:44:19.581Z,93.05
2019-05-12T03:46:49.249Z,92.89
2019-05-12T03:49:18.933Z,92.71
2019-05-12T03:51:48.676Z,93.01
2019-05-12T03:54:18.420Z,93.18
2019-05-12T03:56:48.160Z,93.10
2019-05-12T03:59:17.855Z,93.21
2019-05-12T04:01:47.583Z,92.86
2019-05-12T04:04:17.328Z,92.71
2019-05-12T04:06:47.040Z,92.83
2019-05-12T04:09:16.705Z,92.86
2019-05-12T04:11:46.405Z,92.87
2019-05-12T04:14:16.155Z,92.54
2019-05-12T04:16:46.106Z,92.30
2019-05-12T04:19:17.408Z,92.25
2019-05-12T04:21:47.166Z,92.36
2019-05-12T04:24:16.875Z,91.76
2019-05-12T04:26:46.630Z,90.56
2019-05-12T04:29:16.328Z,85.99
2019-05-12T04:31:46.122Z,82.87
2019-05-12T04:34:19.098Z,80.61
2019-05-12T04:36:47.207Z,79.72
2019-05-12T04:39:16.934Z,81.17
2019-05-12T04:41:46.732Z,81.66
2019-05-12T04:44:16.472Z,83.45
2019-05-12T04:46:46.222Z,84.79
2019-05-12T04:49:16.096Z,86.11
2019-05-12T04:51:45.946Z,85.67
2019-05-12T04:54:15.755Z,86.09
2019-05-12T04:56:45.547Z,86.69
2019-05-12T04:59:16.036Z,86.63
2019-05-12T05:01:45.919Z,86.49
2019-05-12T05:04:15.966Z,87.18
2019-05-12T05:06:45.668Z,87.54
2019-05-12T05:09:15.351Z,87.16
2019-05-12T05:11:45.384Z,87.17
2019-05-12T05:14:15.278Z,86.73
2019-05-12T05:16:45.428Z,87.08
2019-05-12T05:19:15.281Z,86.99
2019-05-12T05:21:45.113Z,86.42
2019-05-12T05:24:14.881Z,86.07
2019-05-12T05:26:44.622Z,85.66
2019-05-12T05:29:14.278Z,85.48
2019-05-12T05:31:44.300Z,84.90
2019-05-12T05:34:14.922Z,84.79
2019-05-12T05:36:44.782Z,84.84
2019-05-12T05:39:14.554Z,84.32
2019-05-12T05:41:46.614Z,83.65
2019-05-12T05:44:15.693Z,83.55
2019-05-12T05:46:49.892Z,82.94
2019-05-12T05:49:16.845Z,83.26
2019-05-12T05:51:54.207Z,82.10
2019-05-12T05:54:24.716Z,82.09
2019-05-12T05:56:58.443Z,82.20
2019-05-12T05:59:21.987Z,81.05
2019-05-12T06:01:54.825Z,80.82
2019-05-12T06:04:23.911Z,80.91
2019-05-12T06:06:56.031Z,81.04
2019-05-12T06:09:25.196Z,79.67
2019-05-12T06:11:59.090Z,80.31
2019-05-12T06:14:26.344Z,79.32
2019-05-12T06:16:56.031Z,78.49
2019-05-12T06:19:26.333Z,77.51
2019-05-12T06:21:56.076Z,74.35
2019-05-12T06:24:25.749Z,72.87
2019-05-12T06:27:00.475Z,71.69
2019-05-12T06:29:26.824Z,69.97
2019-05-12T06:32:00.162Z,70.26
2019-05-12T06:34:28.057Z,69.46
2019-05-12T06:37:03.055Z,69.62
2019-05-12T06:39:29.199Z,69.64
2019-05-12T06:42:11.607Z,67.78
2019-05-12T06:44:30.452Z,67.79
2019-05-12T06:47:05.997Z,69.12
2019-05-12T06:49:33.729Z,69.51
2019-05-12T06:52:06.900Z,68.39
2019-05-12T06:54:34.436Z,66.81
2019-05-12T06:57:21.485Z,67.58
2019-05-12T06:59:35.778Z,66.23
2019-05-12T07:02:05.617Z,65.76
2019-05-12T07:04:35.309Z,66.40
2019-05-12T07:07:05.000Z,64.44
2019-05-12T07:09:36.671Z,64.03
2019-05-12T07:12:07.179Z,65.21
2019-05-12T07:14:39.360Z,67.97
2019-05-12T07:17:26.641Z,67.57
2019-05-12T07:19:58.198Z,65.25
2019-05-12T07:22:31.265Z,64.78
2019-05-12T07:24:59.265Z,64.88
2019-05-12T07:27:36.629Z,66.48
2019-05-12T07:30:00.475Z,67.15
2019-05-12T07:32:31.182Z,66.58
2019-05-12T07:35:00.866Z,65.14
2019-05-12T07:37:34.036Z,65.59
2019-05-12T07:40:05.814Z,63.72
2019-05-12T07:42:39.643Z,65.27
2019-05-12T07:45:11.523Z,65.47
2019-05-12T07:47:40.005Z,64.36
2019-05-12T07:50:15.437Z,63.46
2019-05-12T07:52:44.018Z,63.72
2019-05-12T07:55:14.820Z,64.27
2019-05-12T07:57:52.834Z,62.84
2019-05-12T08:00:21.021Z,61.63
2019-05-12T08:02:47.802Z,61.23
2019-05-12T08:05:20.058Z,61.37
2019-05-12T08:07:50.457Z,61.58
2019-05-12T08:10:20.407Z,60.07
2019-05-12T08:12:51.061Z,59.37
2019-05-12T08:15:21.578Z,61.76
2019-05-12T08:17:57.705Z,59.50
2019-05-12T08:20:23.910Z,58.95
2019-05-12T08:22:54.194Z,58.86
2019-05-12T08:25:28.707Z,59.14
2019-05-12T08:28:11.110Z,55.70
2019-05-12T08:30:40.532Z,54.68
2019-05-12T08:33:09.500Z,54.71
2019-05-12T08:35:38.854Z,56.11
2019-05-12T08:38:08.926Z,55.96
2019-05-12T08:40:45.028Z,55.69
2019-05-12T08:43:10.880Z,56.33
2019-05-12T08:45:40.761Z,55.16
2019-05-12T08:48:16.025Z,54.68
2019-05-12T08:50:45.318Z,54.99
2019-05-12T08:53:20.381Z,52.39
2019-05-12T08:55:44.707Z,51.72
2019-05-12T08:58:29.771Z,51.81
2019-05-12T09:00:50.702Z,51.27
2019-05-12T09:03:25.670Z,50.74
2019-05-12T09:05:53.694Z,50.84
2019-05-12T09:08:24.409Z,53.87
2019-05-12T09:10:55.522Z,52.35
2019-05-12T09:13:25.641Z,52.29
2019-05-12T09:15:55.356Z,54.41
2019-05-12T09:18:33.938Z,50.12
2019-05-12T09:20:56.450Z,48.96
2019-05-12T09:23:26.179Z,48.69
2019-05-12T09:25:57.431Z,48.88
2019-05-12T09:28:27.229Z,46.01
2019-05-12T09:30:57.050Z,48.53
2019-05-12T09:33:31.701Z,48.46
2019-05-12T09:35:58.176Z,47.88
2019-05-12T09:38:27.851Z,49.13
2019-05-12T09:41:02.334Z,48.76
2019-05-12T09:43:29.026Z,49.01
2019-05-12T09:45:58.771Z,48.38
2019-05-12T09:48:28.501Z,48.58
2019-05-12T09:51:04.245Z,49.07
2019-05-12T09:53:29.692Z,49.70
2019-05-12T09:55:59.445Z,47.61
2019-05-12T09:58:29.133Z,48.48
2019-05-12T10:00:59.833Z,48.13
2019-05-12T10:03:30.925Z,47.98
2019-05-12T10:06:00.971Z,49.59
2019-05-12T10:08:35.716Z,50.46
2019-05-12T10:11:03.734Z,50.96
2019-05-12T10:13:33.535Z,49.51
2019-05-12T10:16:04.894Z,50.47
2019-05-12T10:18:34.843Z,50.01
2019-05-12T10:21:04.525Z,52.29
2019-05-12T10:23:34.189Z,50.92
2019-05-12T10:26:09.903Z,50.42
2019-05-12T10:28:35.344Z,50.37
2019-05-12T10:31:05.122Z,49.10
2019-05-12T10:33:34.786Z,52.05
2019-05-12T10:36:08.447Z,49.61
2019-05-12T10:38:36.045Z,51.07
2019-05-12T10:41:05.826Z,52.15
2019-05-12T10:43:35.488Z,49.31
2019-05-12T10:46:05.236Z,51.19
2019-05-12T10:48:34.892Z,48.37
2019-05-12T10:51:04.846Z,49.58
2019-05-12T10:53:34.610Z,50.48
2019-05-12T10:56:05.934Z,49.95
2019-05-12T10:58:35.607Z,50.73
2019-05-12T11:01:08.657Z,49.29
2019-05-12T11:03:42.935Z,48.26
2019-05-12T11:06:09.860Z,50.66
2019-05-12T11:08:41.365Z,51.37
2019-05-12T11:11:13.504Z,50.62
2019-05-12T11:13:48.278Z,50.16
2019-05-12T11:16:16.711Z,50.71
2019-05-12T11:18:45.252Z,44.28
2019-05-12T11:21:14.999Z,47.21
2019-05-12T11:23:44.780Z,49.95
2019-05-12T11:26:14.455Z,49.71
2019-05-12T11:28:44.237Z,48.26
2019-05-12T11:31:13.914Z,48.47
2019-05-12T11:33:43.773Z,48.81
2019-05-12T11:36:13.647Z,49.44
2019-05-12T11:38:44.443Z,46.07
2019-05-12T11:41:16.242Z,45.43
2019-05-12T11:43:45.720Z,45.24
2019-05-12T11:46:15.383Z,48.71
2019-05-12T11:48:49.097Z,48.88
2019-05-12T11:51:20.763Z,48.84
2019-05-12T11:53:47.951Z,46.85
2019-05-12T11:56:17.700Z,46.60
2019-05-12T11:58:51.363Z,45.99
2019-05-12T12:01:21.469Z,46.72
2019-05-12T12:03:51.818Z,46.39
2019-05-12T12:06:23.939Z,46.09
2019-05-12T12:08:53.717Z,48.26
2019-05-12T12:11:27.679Z,48.03
2019-05-12T12:13:55.120Z,48.93
2019-05-12T12:16:24.965Z,48.28
2019-05-12T12:19:02.261Z,46.79
2019-05-12T12:21:26.008Z,46.31
2019-05-12T12:23:55.675Z,46.48
2019-05-12T12:26:30.231Z,47.94
2019-05-12T12:28:57.567Z,47.15
2019-05-12T12:31:29.485Z,47.98
2019-05-12T12:34:00.360Z,47.92
2019-05-12T12:36:30.141Z,46.58
2019-05-12T12:38:59.888Z,46.42
2019-05-12T12:41:29.597Z,45.53
2019-05-12T12:43:59.281Z,46.61
2019-05-12T12:46:28.982Z,45.27
2019-05-12T12:49:00.222Z,46.18
2019-05-12T12:51:30.048Z,47.72
2019-05-12T12:53:59.826Z,47.44
2019-05-12T12:56:30.317Z,47.87
2019-05-12T12:59:01.850Z,48.47
2019-05-12T13:01:35.810Z,48.11
2019-05-12T13:04:06.540Z,46.09
2019-05-12T13:06:36.280Z,41.63
2019-05-12T13:09:17.036Z,42.18
2019-05-12T13:11:38.778Z,43.67
2019-05-12T13:14:08.480Z,44.69
2019-05-12T13:16:38.156Z,45.79
2019-05-12T13:19:12.422Z,42.28
2019-05-12T13:21:39.375Z,41.08
2019-05-12T13:24:09.085Z,40.73
2019-05-12T13:26:38.750Z,41.80
2019-05-12T13:29:08.518Z,42.34
2019-05-12T13:31:40.971Z,42.00
2019-05-12T13:34:09.677Z,40.45
2019-05-12T13:36:39.499Z,40.17
2019-05-12T13:39:11.436Z,42.89
2019-05-12T13:41:40.744Z,43.52
2019-05-12T13:44:10.430Z,43.58
2019-05-12T13:46:40.324Z,41.37
2019-05-12T13:49:10.001Z,44.49
2019-05-12T13:51:43.061Z,43.58
2019-05-12T13:54:11.216Z,44.97
2019-05-12T13:56:40.920Z,40.00
2019-05-12T13:59:12.190Z,39.32
2019-05-12T14:01:45.499Z,41.51
2019-05-12T14:04:13.984Z,41.73
2019-05-12T14:06:43.797Z,40.09
2019-05-12T14:09:13.779Z,40.32
2019-05-12T14:11:43.866Z,41.46
2019-05-12T14:14:15.575Z,43.17
2019-05-12T14:16:57.415Z,41.76
2019-05-12T14:19:16.508Z,41.65
2019-05-12T14:21:46.183Z,41.76
2019-05-12T14:24:15.952Z,41.75
2019-05-12T14:26:49.405Z,41.34
2019-05-12T14:29:20.642Z,39.24
2019-05-12T14:31:54.507Z,40.16
2019-05-12T14:34:21.049Z,40.19
2019-05-12T14:36:50.786Z,41.19
2019-05-12T14:39:20.476Z,40.24
2019-05-12T14:41:52.986Z,41.26
2019-05-12T14:44:23.631Z,41.70
2019-05-12T14:46:53.798Z,40.93
2019-05-12T14:49:26.449Z,42.51
2019-05-12T14:51:55.803Z,40.64
2019-05-12T14:54:25.663Z,40.47
2019-05-12T14:56:57.742Z,40.45
2019-05-12T14:59:30.114Z,41.45
2019-05-12T15:01:59.546Z,41.03
2019-05-12T15:04:30.123Z,42.02
2019-05-12T15:07:05.098Z,40.64
2019-05-12T15:09:34.002Z,40.67
2019-05-12T15:12:03.559Z,42.11
2019-05-12T15:14:37.784Z,42.47
2019-05-12T15:17:04.945Z,42.31
2019-05-12T15:19:34.699Z,41.39
2019-05-12T15:22:07.674Z,40.54
2019-05-12T15:24:35.861Z,41.04
2019-05-12T15:27:05.744Z,40.25
2019-05-12T15:29:35.441Z,39.44
2019-05-12T15:32:05.254Z,38.09
2019-05-12T15:34:35.048Z,39.25
2019-05-12T15:37:04.816Z,38.85
2019-05-12T15:39:34.636Z,38.57
2019-05-12T15:42:04.465Z,38.97
2019-05-12T15:44:36.734Z,37.38
2019-05-12T15:47:05.612Z,38.49
2019-05-12T15:49:35.306Z,39.04
2019-05-12T15:52:05.159Z,40.03
2019-05-12T15:54:36.310Z,40.81
2019-05-12T15:57:06.279Z,41.71
2019-05-12T15:59:35.939Z,42.26
2019-05-12T16:02:12.323Z,43.11
2019-05-12T16:04:42.628Z,41.98
2019-05-12T16:07:08.674Z,43.79
2019-05-12T16:09:38.373Z,43.47
2019-05-12T16:12:18.665Z,41.60
2019-05-12T16:14:41.284Z,41.09
2019-05-12T16:17:11.124Z,42.14
2019-05-12T16:19:40.825Z,40.55
2019-05-12T16:22:10.505Z,41.91
2019-05-12T16:24:43.446Z,41.07
2019-05-12T16:27:13.880Z,40.78
2019-05-12T16:29:45.604Z,40.79
2019-05-12T16:32:26.360Z,39.84
2019-05-12T16:34:48.833Z,39.23
2019-05-12T16:37:25.498Z,39.45
2019-05-12T16:39:49.064Z,39.77
2019-05-12T16:42:18.756Z,38.43
2019-05-12T16:44:48.510Z,38.66
2019-05-12T16:47:18.761Z,37.94
2019-05-12T16:49:49.777Z,38.73
2019-05-12T16:52:19.557Z,38.19
2019-05-12T16:54:49.303Z,39.40
2019-05-12T16:57:19.050Z,38.22
2019-05-12T16:59:55.542Z,38.06
2019-05-12T17:02:37.564Z,38.41
2019-05-12T17:04:57.595Z,38.52
2019-05-12T17:07:27.333Z,39.42
2019-05-12T17:10:02.993Z,39.11
2019-05-12T17:12:32.072Z,39.40
2019-05-12T17:15:00.096Z,37.05
2019-05-12T17:17:29.853Z,37.47
2019-05-12T17:19:59.709Z,39.40
2019-05-12T17:22:29.474Z,40.21
2019-05-12T17:24:59.220Z,40.80
2019-05-12T17:27:28.989Z,42.07
2019-05-12T17:29:58.674Z,43.30
2019-05-12T17:32:28.356Z,43.58
2019-05-12T17:34:58.021Z,43.33
2019-05-12T17:37:31.467Z,43.75
2019-05-12T17:39:59.289Z,45.10
2019-05-12T17:42:29.135Z,46.01
2019-05-12T17:44:58.939Z,45.96
2019-05-12T17:47:31.786Z,46.87
2019-05-12T17:50:00.423Z,46.04
2019-05-12T17:52:33.610Z,45.21
2019-05-12T17:55:05.880Z,45.78
2019-05-12T17:57:34.856Z,46.63
2019-05-12T18:00:10.627Z,46.71
2019-05-12T18:02:49.458Z,47.16
2019-05-12T18:05:19.783Z,47.46
2019-05-12T18:07:50.924Z,48.14
2019-05-12T18:10:21.041Z,48.65
2019-05-12T18:12:52.979Z,48.58
2019-05-12T18:15:31.892Z,49.44
2019-05-12T18:17:53.775Z,49.83
2019-05-12T18:20:23.846Z,49.91
2019-05-12T18:22:53.842Z,50.26
2019-05-12T18:25:30.464Z,50.30
2019-05-12T18:27:55.347Z,50.25
2019-05-12T18:30:25.245Z,50.87
2019-05-12T18:33:04.354Z,51.33
2019-05-12T18:35:26.666Z,51.42
2019-05-12T18:37:56.516Z,51.89
2019-05-12T18:40:28.138Z,51.90
2019-05-12T18:42:57.807Z,52.47
2019-05-12T18:45:27.746Z,53.15
2019-05-12T18:48:01.205Z,53.62
2019-05-12T18:50:32.111Z,54.85
2019-05-12T18:53:01.451Z,55.62
2019-05-12T18:55:35.954Z,56.19
2019-05-12T18:58:04.352Z,56.49
2019-05-12T19:00:34.843Z,57.40
2019-05-12T19:03:09.831Z,58.05
2019-05-12T19:05:36.667Z,58.51
2019-05-12T19:08:06.547Z,58.74
2019-05-12T19:10:38.567Z,59.27
2019-05-12T19:13:08.348Z,59.93
2019-05-12T19:15:38.209Z,60.54
2019-05-12T19:18:08.024Z,60.71
2019-05-12T19:20:38.351Z,61.46
2019-05-12T19:23:26.079Z,61.86
2019-05-12T19:26:20.632Z,62.02
2019-05-12T19:28:58.012Z,62.80
2019-05-12T19:31:24.881Z,62.83
2019-05-12T19:34:14.506Z,63.84
2019-05-12T19:36:26.485Z,63.18
2019-05-12T19:38:56.465Z,63.10
2019-05-12T19:41:30.846Z,64.16
2019-05-12T19:43:57.723Z,64.74
2019-05-12T19:46:27.562Z,64.81
2019-05-12T19:48:57.977Z,65.04
2019-05-12T19:51:28.461Z,65.26
2019-05-12T19:53:58.177Z,65.63
2019-05-12T19:56:34.719Z,66.15
2019-05-12T19:58:59.478Z,66.20
2019-05-12T20:01:32.823Z,66.14
2019-05-12T20:04:03.587Z,66.83
2019-05-12T20:06:33.741Z,67.19
2019-05-12T20:09:10.160Z,67.64
2019-05-12T20:11:37.199Z,67.71
2019-05-12T20:14:09.933Z,68.27
2019-05-12T20:16:40.820Z,69.37
2019-05-12T20:19:10.545Z,70.32
2019-05-12T20:21:40.449Z,69.85
2019-05-12T20:24:10.270Z,69.88
2019-05-12T20:26:40.283Z,70.68
2019-05-12T20:29:13.804Z,70.28
2019-05-12T20:31:48.689Z,70.62
2019-05-12T20:34:15.244Z,71.32
2019-05-12T20:36:45.168Z,71.86
2019-05-12T20:39:16.877Z,72.57
2019-05-12T20:41:46.585Z,72.78
2019-05-12T20:44:19.990Z,73.41
2019-05-12T20:46:47.963Z,73.04
2019-05-12T20:49:20.277Z,72.54
2019-05-12T20:51:54.990Z,72.22
2019-05-12T20:54:21.065Z,72.41
2019-05-12T20:57:01.496Z,72.67
2019-05-12T20:59:27.999Z,73.58
2019-05-12T21:01:55.994Z,74.27
2019-05-12T21:04:31.328Z,74.37
2019-05-12T21:06:57.281Z,74.62
2019-05-12T21:09:27.231Z,74.56
2019-05-12T21:11:57.024Z,74.49
2019-05-12T21:14:26.777Z,74.80
2019-05-12T21:16:56.592Z,74.95
2019-05-12T21:19:29.257Z,75.15
2019-05-12T21:21:59.110Z,75.08
2019-05-12T21:24:29.633Z,74.58
2019-05-12T21:27:00.714Z,74.55
2019-05-12T21:29:30.551Z,74.58
2019-05-12T21:32:02.917Z,74.31
2019-05-12T21:34:34.369Z,74.57
2019-05-12T21:37:04.659Z,74.70
2019-05-12T21:39:34.914Z,75.12
2019-05-12T21:42:04.851Z,75.53
2019-05-12T21:44:34.690Z,75.67
2019-05-12T21:47:10.285Z,75.69
2019-05-12T21:49:36.016Z,75.38
2019-05-12T21:52:06.636Z,76.04
2019-05-12T21:54:39.637Z,75.49
2019-05-12T21:57:08.341Z,76.08
2019-05-12T21:59:39.726Z,76.46
2019-05-12T22:02:10.534Z,76.95
2019-05-12T22:04:41.681Z,76.86
2019-05-12T22:07:14.581Z,77.04
2019-05-12T22:09:46.830Z,76.87
2019-05-12T22:12:15.162Z,77.71
2019-05-12T22:14:46.225Z,78.00
2019-05-12T22:17:16.128Z,78.13
2019-05-12T22:19:45.982Z,77.92
2019-05-12T22:22:19.714Z,78.00
2019-05-12T22:24:47.467Z,78.65
2019-05-12T22:27:25.881Z,79.18
2019-05-12T22:29:48.832Z,79.08
2019-05-12T22:32:19.171Z,79.43
2019-05-12T22:34:50.087Z,79.27
2019-05-12T22:37:19.823Z,79.29
2019-05-12T22:39:49.653Z,79.33
2019-05-12T22:42:21.681Z,79.46
2019-05-12T22:44:55.290Z,79.39
2019-05-12T22:47:23.968Z,78.95
2019-05-12T22:49:56.890Z,79.39
2019-05-12T22:52:25.490Z,79.66
2019-05-12T22:54:55.252Z,79.75
2019-05-12T22:57:29.156Z,80.14
2019-05-12T22:59:56.517Z,79.85
2019-05-12T23:02:29.883Z,79.65
2019-05-12T23:04:57.866Z,79.88
2019-05-12T23:07:29.685Z,80.19
2019-05-12T23:10:00.597Z,80.67
2019-05-12T23:12:30.683Z,80.89
2019-05-12T23:15:02.931Z,81.07
2019-05-12T23:17:33.825Z,81.33
2019-05-12T23:20:04.886Z,81.30
2019-05-12T23:22:36.575Z,80.60
2019-05-12T23:25:11.440Z,80.59
2019-05-12T23:27:39.129Z,81.00
2019-05-12T23:30:11.159Z,81.50
2019-05-12T23:32:42.867Z,81.74
2019-05-12T23:35:14.417Z,81.89
2019-05-12T23:37:44.327Z,81.91
2019-05-12T23:40:16.618Z,82.13
2019-05-12T23:42:45.798Z,82.12
2019-05-12T23:48:21.121Z,82.46
2019-05-12T23:50:50.907Z,82.93
2019-05-12T23:53:20.665Z,82.66
2019-05-12T23:55:50.346Z,82.74
2019-05-12T23:58:20.175Z,82.61
